sensor_id;sensor_type;location;lat;lon;timestamp;pressure;altitude;pressure_sealevel;temperature;humidity
9676;BME280;4876;42.656;23.292;2023-04-02T00:01:21;93433.84;;;8.58;63.67
9676;BME280;4876;42.656;23.292;2023-04-02T00:04:18;93446.47;;;8.56;63.75
9676;BME280;4876;42.656;23.292;2023-04-02T00:06:50;93449.31;;;8.51;63.78
9676;BME280;4876;42.656;23.292;2023-04-02T00:09:29;93443.91;;;8.48;63.82
9676;BME280;4876;42.656;23.292;2023-04-02T00:11:57;93445.66;;;8.35;64.25
9676;BME280;4876;42.656;23.292;2023-04-02T00:14:28;93464.47;;;8.37;64.00
9676;BME280;4876;42.656;23.292;2023-04-02T00:17:00;93453.81;;;8.42;63.89
9676;BME280;4876;42.656;23.292;2023-04-02T00:19:30;93470.53;;;8.58;63.33
9676;BME280;4876;42.656;23.292;2023-04-02T00:22:02;93454.34;;;8.56;63.19
9676;BME280;4876;42.656;23.292;2023-04-02T00:24:32;93436.31;;;8.55;63.57
9676;BME280;4876;42.656;23.292;2023-04-02T00:26:59;93437.59;;;8.49;63.22
9676;BME280;4876;42.656;23.292;2023-04-02T00:29:26;93438.88;;;8.34;62.63
9676;BME280;4876;42.656;23.292;2023-04-02T00:31:53;93440.00;;;8.24;63.72
9676;BME280;4876;42.656;23.292;2023-04-02T00:34:27;93427.38;;;7.97;65.01
9676;BME280;4876;42.656;23.292;2023-04-02T00:36:57;93426.44;;;8.01;63.72
9676;BME280;4876;42.656;23.292;2023-04-02T00:39:27;93452.06;;;8.17;64.49
9676;BME280;4876;42.656;23.292;2023-04-02T00:41:56;93446.00;;;8.25;63.37
9676;BME280;4876;42.656;23.292;2023-04-02T00:44:30;93440.66;;;8.51;62.73
9676;BME280;4876;42.656;23.292;2023-04-02T00:47:02;93442.25;;;8.43;62.78
9676;BME280;4876;42.656;23.292;2023-04-02T00:49:37;93442.41;;;8.38;62.44
9676;BME280;4876;42.656;23.292;2023-04-02T00:52:06;93445.50;;;8.40;64.15
9676;BME280;4876;42.656;23.292;2023-04-02T00:54:38;93446.97;;;8.20;64.08
9676;BME280;4876;42.656;23.292;2023-04-02T00:57:14;93448.28;;;8.35;63.29
9676;BME280;4876;42.656;23.292;2023-04-02T00:59:50;93442.06;;;8.48;62.91
9676;BME280;4876;42.656;23.292;2023-04-02T01:02:24;93438.81;;;8.51;61.78
9676;BME280;4876;42.656;23.292;2023-04-02T01:04:56;93450.28;;;8.38;62.09
9676;BME280;4876;42.656;23.292;2023-04-02T01:07:45;93448.25;;;8.44;61.97
9676;BME280;4876;42.656;23.292;2023-04-02T01:13:21;93437.19;;;8.38;61.81
9676;BME280;4876;42.656;23.292;2023-04-02T01:15:55;93433.38;;;8.56;62.14
9676;BME280;4876;42.656;23.292;2023-04-02T01:18:43;93439.00;;;8.46;61.96
9676;BME280;4876;42.656;23.292;2023-04-02T01:21:27;93431.25;;;8.50;61.49
9676;BME280;4876;42.656;23.292;2023-04-02T01:24:01;93438.16;;;8.54;61.48
9676;BME280;4876;42.656;23.292;2023-04-02T01:26:44;93445.53;;;8.82;60.63
9676;BME280;4876;42.656;23.292;2023-04-02T01:29:16;93457.25;;;8.63;61.36
9676;BME280;4876;42.656;23.292;2023-04-02T01:31:46;93438.75;;;8.39;61.72
9676;BME280;4876;42.656;23.292;2023-04-02T01:34:16;93443.59;;;8.49;62.13
9676;BME280;4876;42.656;23.292;2023-04-02T01:36:53;93445.66;;;8.65;61.05
9676;BME280;4876;42.656;23.292;2023-04-02T01:39:41;93455.81;;;8.45;61.09
9676;BME280;4876;42.656;23.292;2023-04-02T01:42:17;93460.66;;;8.55;60.82
9676;BME280;4876;42.656;23.292;2023-04-02T01:44:49;93456.19;;;8.56;61.13
9676;BME280;4876;42.656;23.292;2023-04-02T01:47:18;93452.47;;;8.57;60.62
9676;BME280;4876;42.656;23.292;2023-04-02T01:49:47;93449.69;;;8.62;61.70
9676;BME280;4876;42.656;23.292;2023-04-02T01:52:16;93441.81;;;8.62;61.00
9676;BME280;4876;42.656;23.292;2023-04-02T01:54:46;93451.50;;;8.70;60.75
9676;BME280;4876;42.656;23.292;2023-04-02T01:57:13;93448.28;;;8.65;60.58
9676;BME280;4876;42.656;23.292;2023-04-02T01:59:40;93435.56;;;8.75;60.69
9676;BME280;4876;42.656;23.292;2023-04-02T02:02:11;93430.19;;;8.72;60.89
9676;BME280;4876;42.656;23.292;2023-04-02T02:04:39;93438.06;;;8.72;61.29
9676;BME280;4876;42.656;23.292;2023-04-02T02:07:12;93411.13;;;8.42;60.99
9676;BME280;4876;42.656;23.292;2023-04-02T02:09:40;93435.38;;;8.59;61.46
9676;BME280;4876;42.656;23.292;2023-04-02T02:12:09;93446.88;;;8.67;60.55
9676;BME280;4876;42.656;23.292;2023-04-02T02:14:39;93433.84;;;8.58;61.03
9676;BME280;4876;42.656;23.292;2023-04-02T02:17:14;93450.00;;;8.60;61.19
9676;BME280;4876;42.656;23.292;2023-04-02T02:19:43;93448.28;;;8.65;60.54
9676;BME280;4876;42.656;23.292;2023-04-02T02:22:16;93443.22;;;8.59;61.27
9676;BME280;4876;42.656;23.292;2023-04-02T02:24:45;93447.25;;;8.57;61.04
9676;BME280;4876;42.656;23.292;2023-04-02T02:27:41;93459.41;;;8.61;60.46
9676;BME280;4876;42.656;23.292;2023-04-02T02:30:13;93452.47;;;8.57;61.02
9676;BME280;4876;42.656;23.292;2023-04-02T02:32:49;93459.28;;;8.58;61.73
9676;BME280;4876;42.656;23.292;2023-04-02T02:35:20;93456.59;;;8.67;60.48
9676;BME280;4876;42.656;23.292;2023-04-02T02:37:52;93458.34;;;8.83;59.68
9676;BME280;4876;42.656;23.292;2023-04-02T02:40:25;93449.56;;;8.58;60.64
9676;BME280;4876;42.656;23.292;2023-04-02T02:42:56;93401.03;;;8.23;61.21
9676;BME280;4876;42.656;23.292;2023-04-02T02:45:30;93441.38;;;8.81;60.49
9676;BME280;4876;42.656;23.292;2023-04-02T02:48:01;93447.00;;;8.71;60.23
9676;BME280;4876;42.656;23.292;2023-04-02T02:50:30;93447.00;;;8.71;59.80
9676;BME280;4876;42.656;23.292;2023-04-02T02:53:02;93445.53;;;8.61;60.72
9676;BME280;4876;42.656;23.292;2023-04-02T02:55:31;93451.09;;;8.59;60.43
9676;BME280;4876;42.656;23.292;2023-04-02T02:58:04;93445.88;;;8.51;60.00
9676;BME280;4876;42.656;23.292;2023-04-02T03:00:34;93445.41;;;8.57;61.14
9676;BME280;4876;42.656;23.292;2023-04-02T03:03:05;93444.69;;;8.48;60.67
9676;BME280;4876;42.656;23.292;2023-04-02T03:05:34;93444.25;;;8.46;61.88
9676;BME280;4876;42.656;23.292;2023-04-02T03:08:02;93442.50;;;8.50;60.86
9676;BME280;4876;42.656;23.292;2023-04-02T03:10:35;93454.03;;;8.58;60.17
9676;BME280;4876;42.656;23.292;2023-04-02T03:13:14;93453.44;;;8.52;61.10
9676;BME280;4876;42.656;23.292;2023-04-02T03:15:50;93454.47;;;8.60;60.83
9676;BME280;4876;42.656;23.292;2023-04-02T03:18:31;93455.38;;;8.64;61.14
9676;BME280;4876;42.656;23.292;2023-04-02T03:21:01;93457.94;;;8.52;60.58
9676;BME280;4876;42.656;23.292;2023-04-02T03:23:35;93464.56;;;8.49;61.20
9676;BME280;4876;42.656;23.292;2023-04-02T03:26:11;93465.03;;;8.51;60.80
9676;BME280;4876;42.656;23.292;2023-04-02T03:28:45;93461.94;;;8.49;61.21
9676;BME280;4876;42.656;23.292;2023-04-02T03:31:17;93468.44;;;8.43;61.61
9676;BME280;4876;42.656;23.292;2023-04-02T03:33:52;93477.38;;;8.42;62.15
9676;BME280;4876;42.656;23.292;2023-04-02T03:36:24;93473.25;;;8.41;61.94
9676;BME280;4876;42.656;23.292;2023-04-02T03:39:00;93468.59;;;8.47;61.15
9676;BME280;4876;42.656;23.292;2023-04-02T03:41:32;93467.81;;;8.46;60.67
9676;BME280;4876;42.656;23.292;2023-04-02T03:44:05;93480.09;;;8.54;60.92
9676;BME280;4876;42.656;23.292;2023-04-02T03:46:39;93465.28;;;8.58;60.81
9676;BME280;4876;42.656;23.292;2023-04-02T03:49:11;93479.66;;;8.52;60.90
9676;BME280;4876;42.656;23.292;2023-04-02T03:51:44;93463.09;;;8.40;60.68
9676;BME280;4876;42.656;23.292;2023-04-02T03:54:15;93467.94;;;8.50;61.55
9676;BME280;4876;42.656;23.292;2023-04-02T03:56:43;93471.03;;;8.73;61.12
9676;BME280;4876;42.656;23.292;2023-04-02T03:59:15;93454.69;;;8.76;60.62
9676;BME280;4876;42.656;23.292;2023-04-02T04:01:52;93475.09;;;8.70;60.56
9676;BME280;4876;42.656;23.292;2023-04-02T04:04:23;93470.47;;;8.67;61.03
9676;BME280;4876;42.656;23.292;2023-04-02T04:06:54;93457.28;;;8.55;60.60
9676;BME280;4876;42.656;23.292;2023-04-02T04:09:24;93474.09;;;8.75;60.87
9676;BME280;4876;42.656;23.292;2023-04-02T04:12:04;93469.25;;;8.65;60.30
9676;BME280;4876;42.656;23.292;2023-04-02T04:14:36;93478.56;;;8.53;61.24
9676;BME280;4876;42.656;23.292;2023-04-02T04:17:13;93475.72;;;8.38;62.01
9676;BME280;4876;42.656;23.292;2023-04-02T04:19:45;93477.88;;;8.35;61.68
9676;BME280;4876;42.656;23.292;2023-04-02T04:22:15;93483.44;;;8.25;61.66
9676;BME280;4876;42.656;23.292;2023-04-02T04:24:43;93492.44;;;8.16;62.17
9676;BME280;4876;42.656;23.292;2023-04-02T04:27:17;93492.75;;;8.14;62.57
9676;BME280;4876;42.656;23.292;2023-04-02T04:29:51;93489.59;;;8.29;65.10
9676;BME280;4876;42.656;23.292;2023-04-02T04:32:25;93493.84;;;8.04;68.87
9676;BME280;4876;42.656;23.292;2023-04-02T04:35:02;93504.41;;;7.70;70.54
9676;BME280;4876;42.656;23.292;2023-04-02T04:37:33;93501.84;;;7.26;73.15
9676;BME280;4876;42.656;23.292;2023-04-02T04:40:08;93514.47;;;7.07;74.35
9676;BME280;4876;42.656;23.292;2023-04-02T04:42:38;93525.22;;;6.88;76.88
9676;BME280;4876;42.656;23.292;2023-04-02T04:45:15;93521.53;;;6.89;77.19
9676;BME280;4876;42.656;23.292;2023-04-02T04:47:52;93517.13;;;7.16;77.24
9676;BME280;4876;42.656;23.292;2023-04-02T04:50:26;93510.47;;;7.44;75.91
9676;BME280;4876;42.656;23.292;2023-04-02T04:52:54;93514.44;;;7.68;74.69
9676;BME280;4876;42.656;23.292;2023-04-02T04:55:26;93521.94;;;7.87;74.12
9676;BME280;4876;42.656;23.292;2023-04-02T04:57:58;93522.25;;;8.41;71.84
9676;BME280;4876;42.656;23.292;2023-04-02T05:00:41;93518.97;;;8.52;70.68
9676;BME280;4876;42.656;23.292;2023-04-02T05:03:16;93525.81;;;8.36;71.66
9676;BME280;4876;42.656;23.292;2023-04-02T05:05:47;93525.59;;;8.50;71.20
9676;BME280;4876;42.656;23.292;2023-04-02T05:08:18;93525.00;;;7.97;71.59
9676;BME280;4876;42.656;23.292;2023-04-02T05:10:50;93503.78;;;7.90;73.57
9676;BME280;4876;42.656;23.292;2023-04-02T05:13:21;93508.97;;;7.99;73.78
9676;BME280;4876;42.656;23.292;2023-04-02T05:15:52;93516.91;;;7.73;74.72
9676;BME280;4876;42.656;23.292;2023-04-02T05:18:25;93519.88;;;8.01;74.14
9676;BME280;4876;42.656;23.292;2023-04-02T05:20:58;93513.06;;;8.55;72.52
9676;BME280;4876;42.656;23.292;2023-04-02T05:23:34;93523.88;;;8.83;69.95
9676;BME280;4876;42.656;23.292;2023-04-02T05:26:10;93519.25;;;8.80;69.75
9676;BME280;4876;42.656;23.292;2023-04-02T05:28:46;93546.22;;;8.81;69.03
9676;BME280;4876;42.656;23.292;2023-04-02T05:31:19;93523.59;;;8.76;70.67
9676;BME280;4876;42.656;23.292;2023-04-02T05:33:51;93535.38;;;9.12;68.75
9676;BME280;4876;42.656;23.292;2023-04-02T05:36:21;93472.78;;;8.89;67.69
9676;BME280;4876;42.656;23.292;2023-04-02T05:38:51;93543.16;;;9.83;66.09
9676;BME280;4876;42.656;23.292;2023-04-02T05:41:25;93539.28;;;9.48;65.76
9676;BME280;4876;42.656;23.292;2023-04-02T05:44:06;93546.94;;;9.20;68.70
9676;BME280;4876;42.656;23.292;2023-04-02T05:46:42;93553.94;;;9.69;67.11
9676;BME280;4876;42.656;23.292;2023-04-02T05:49:17;93544.16;;;9.91;65.28
9676;BME280;4876;42.656;23.292;2023-04-02T05:51:49;93537.47;;;9.60;66.17
9676;BME280;4876;42.656;23.292;2023-04-02T05:54:24;93545.75;;;10.16;65.23
9676;BME280;4876;42.656;23.292;2023-04-02T05:56:56;93544.38;;;9.98;64.09
9676;BME280;4876;42.656;23.292;2023-04-02T05:59:28;93547.34;;;9.96;65.25
9676;BME280;4876;42.656;23.292;2023-04-02T06:02:03;93561.28;;;10.09;64.95
9676;BME280;4876;42.656;23.292;2023-04-02T06:04:38;93559.19;;;9.69;65.36
9676;BME280;4876;42.656;23.292;2023-04-02T06:07:14;93549.81;;;9.81;65.94
9676;BME280;4876;42.656;23.292;2023-04-02T06:09:44;93550.28;;;10.40;65.03
9676;BME280;4876;42.656;23.292;2023-04-02T06:12:22;93565.03;;;10.20;64.24
9676;BME280;4876;42.656;23.292;2023-04-02T06:14:52;93558.22;;;10.07;63.75
9676;BME280;4876;42.656;23.292;2023-04-02T06:17:19;93553.38;;;10.67;63.41
9676;BME280;4876;42.656;23.292;2023-04-02T06:19:47;93561.16;;;10.75;61.29
9676;BME280;4876;42.656;23.292;2023-04-02T06:22:21;93546.91;;;10.89;61.31
9676;BME280;4876;42.656;23.292;2023-04-02T06:24:51;93559.81;;;11.18;60.82
9676;BME280;4876;42.656;23.292;2023-04-02T06:27:22;93561.22;;;11.28;59.81
9676;BME280;4876;42.656;23.292;2023-04-02T06:29:52;93566.78;;;11.39;59.71
9676;BME280;4876;42.656;23.292;2023-04-02T06:32:22;93567.44;;;11.36;60.65
9676;BME280;4876;42.656;23.292;2023-04-02T06:34:50;93558.75;;;10.95;61.53
9676;BME280;4876;42.656;23.292;2023-04-02T06:37:23;93552.38;;;10.84;62.14
9676;BME280;4876;42.656;23.292;2023-04-02T06:39:52;93529.63;;;10.51;62.55
9676;BME280;4876;42.656;23.292;2023-04-02T06:42:21;93571.38;;;10.19;64.69
9676;BME280;4876;42.656;23.292;2023-04-02T06:44:49;93554.94;;;10.22;63.54
9676;BME280;4876;42.656;23.292;2023-04-02T06:47:23;93570.03;;;10.71;63.87
9676;BME280;4876;42.656;23.292;2023-04-02T06:49:57;93566.50;;;11.03;61.63
9676;BME280;4876;42.656;23.292;2023-04-02T06:52:30;93574.53;;;11.07;61.06
9676;BME280;4876;42.656;23.292;2023-04-02T06:55:04;93577.53;;;11.33;60.70
9676;BME280;4876;42.656;23.292;2023-04-02T06:57:32;93565.50;;;11.20;60.46
9676;BME280;4876;42.656;23.292;2023-04-02T07:00:00;93580.28;;;11.37;59.78
9676;BME280;4876;42.656;23.292;2023-04-02T07:02:30;93585.88;;;11.23;59.79
9676;BME280;4876;42.656;23.292;2023-04-02T07:05:03;93588.16;;;11.49;59.04
9676;BME280;4876;42.656;23.292;2023-04-02T07:07:31;93581.94;;;11.70;59.25
9676;BME280;4876;42.656;23.292;2023-04-02T07:09:58;93587.22;;;10.93;60.17
9676;BME280;4876;42.656;23.292;2023-04-02T07:12:25;93572.00;;;10.98;58.85
9676;BME280;4876;42.656;23.292;2023-04-02T07:14:52;93584.31;;;11.47;58.09
9676;BME280;4876;42.656;23.292;2023-04-02T07:17:19;93561.28;;;11.44;57.07
9676;BME280;4876;42.656;23.292;2023-04-02T07:19:47;93584.75;;;11.89;54.07
9676;BME280;4876;42.656;23.292;2023-04-02T07:22:15;93578.03;;;12.20;52.61
9676;BME280;4876;42.656;23.292;2023-04-02T07:24:44;93593.66;;;12.28;52.41
9676;BME280;4876;42.656;23.292;2023-04-02T07:27:12;93594.13;;;12.30;51.81
9676;BME280;4876;42.656;23.292;2023-04-02T07:29:39;93596.88;;;12.50;51.29
9676;BME280;4876;42.656;23.292;2023-04-02T07:32:08;93591.84;;;12.45;51.06
9676;BME280;4876;42.656;23.292;2023-04-02T07:34:36;93600.94;;;12.79;51.13
9676;BME280;4876;42.656;23.292;2023-04-02T07:37:03;93600.16;;;13.10;49.83
9676;BME280;4876;42.656;23.292;2023-04-02T07:39:30;93602.59;;;13.34;49.42
9676;BME280;4876;42.656;23.292;2023-04-02T07:41:59;93603.41;;;13.03;50.04
9676;BME280;4876;42.656;23.292;2023-04-02T07:44:27;93602.13;;;13.13;49.14
9676;BME280;4876;42.656;23.292;2023-04-02T07:46:54;93605.34;;;13.22;49.20
9676;BME280;4876;42.656;23.292;2023-04-02T07:49:21;93606.50;;;13.40;49.80
9676;BME280;4876;42.656;23.292;2023-04-02T07:51:48;93599.53;;;13.16;48.65
9676;BME280;4876;42.656;23.292;2023-04-02T07:54:14;93594.34;;;13.20;48.98
9676;BME280;4876;42.656;23.292;2023-04-02T07:56:41;93596.16;;;13.00;49.22
9676;BME280;4876;42.656;23.292;2023-04-02T07:59:10;93595.38;;;13.15;50.60
9676;BME280;4876;42.656;23.292;2023-04-02T08:01:36;93590.22;;;13.54;49.93
9676;BME280;4876;42.656;23.292;2023-04-02T08:04:03;93600.16;;;13.61;48.68
9676;BME280;4876;42.656;23.292;2023-04-02T08:06:32;93587.22;;;13.56;48.45
9676;BME280;4876;42.656;23.292;2023-04-02T08:08:59;93550.13;;;12.82;48.89
9676;BME280;4876;42.656;23.292;2023-04-02T08:11:26;93613.19;;;12.71;50.04
9676;BME280;4876;42.656;23.292;2023-04-02T08:13:55;93612.84;;;12.57;50.75
9676;BME280;4876;42.656;23.292;2023-04-02T08:16:24;93610.16;;;12.69;50.55
9676;BME280;4876;42.656;23.292;2023-04-02T08:18:52;93608.63;;;12.68;50.13
9676;BME280;4876;42.656;23.292;2023-04-02T08:21:19;93609.72;;;12.99;49.72
9676;BME280;4876;42.656;23.292;2023-04-02T08:23:52;93609.38;;;13.00;50.18
9676;BME280;4876;42.656;23.292;2023-04-02T08:26:19;93620.38;;;12.86;50.02
9676;BME280;4876;42.656;23.292;2023-04-02T08:28:47;93610.72;;;12.78;49.86
9676;BME280;4876;42.656;23.292;2023-04-02T08:31:16;93615.69;;;12.80;51.19
9676;BME280;4876;42.656;23.292;2023-04-02T08:33:44;93618.13;;;12.57;50.48
9676;BME280;4876;42.656;23.292;2023-04-02T08:36:14;93622.28;;;12.58;50.98
9676;BME280;4876;42.656;23.292;2023-04-02T08:38:42;93621.72;;;12.80;51.50
9676;BME280;4876;42.656;23.292;2023-04-02T08:41:14;93622.44;;;13.44;49.73
9676;BME280;4876;42.656;23.292;2023-04-02T08:43:56;93625.03;;;13.60;48.51
9676;BME280;4876;42.656;23.292;2023-04-02T08:46:29;93625.34;;;13.39;47.85
9676;BME280;4876;42.656;23.292;2023-04-02T08:49:01;93618.22;;;13.59;47.25
9676;BME280;4876;42.656;23.292;2023-04-02T08:51:39;93627.84;;;13.86;48.90
9676;BME280;4876;42.656;23.292;2023-04-02T08:54:13;93625.13;;;14.21;47.85
9676;BME280;4876;42.656;23.292;2023-04-02T08:56:43;93620.47;;;14.15;47.36
9676;BME280;4876;42.656;23.292;2023-04-02T08:59:25;93618.50;;;14.50;46.53
9676;BME280;4876;42.656;23.292;2023-04-02T09:02:11;93614.84;;;14.59;46.75
9676;BME280;4876;42.656;23.292;2023-04-02T09:04:41;93621.59;;;14.75;44.74
9676;BME280;4876;42.656;23.292;2023-04-02T09:07:10;93587.25;;;14.37;43.86
9676;BME280;4876;42.656;23.292;2023-04-02T09:09:38;93619.88;;;14.44;44.90
9676;BME280;4876;42.656;23.292;2023-04-02T09:12:15;93620.75;;;14.48;44.76
9676;BME280;4876;42.656;23.292;2023-04-02T09:14:45;93621.00;;;14.63;45.85
9676;BME280;4876;42.656;23.292;2023-04-02T09:17:17;93620.09;;;14.55;44.42
9676;BME280;4876;42.656;23.292;2023-04-02T09:19:52;93615.84;;;14.96;44.89
9676;BME280;4876;42.656;23.292;2023-04-02T09:22:22;93619.53;;;15.15;46.05
9676;BME280;4876;42.656;23.292;2023-04-02T09:24:50;93613.78;;;15.09;44.27
9676;BME280;4876;42.656;23.292;2023-04-02T09:27:18;93622.00;;;15.27;43.24
9676;BME280;4876;42.656;23.292;2023-04-02T09:29:46;93621.19;;;15.23;43.13
9676;BME280;4876;42.656;23.292;2023-04-02T09:35:11;93614.22;;;14.65;45.14
9676;BME280;4876;42.656;23.292;2023-04-02T09:37:40;93602.97;;;14.72;43.88
9676;BME280;4876;42.656;23.292;2023-04-02T09:40:19;93606.06;;;14.74;44.24
9676;BME280;4876;42.656;23.292;2023-04-02T09:42:49;93606.69;;;14.90;44.27
9676;BME280;4876;42.656;23.292;2023-04-02T09:45:26;93610.06;;;14.87;44.80
9676;BME280;4876;42.656;23.292;2023-04-02T09:47:54;93605.91;;;15.13;45.12
9676;BME280;4876;42.656;23.292;2023-04-02T09:50:27;93611.38;;;15.23;43.80
9676;BME280;4876;42.656;23.292;2023-04-02T09:52:55;93607.03;;;15.38;44.53
9676;BME280;4876;42.656;23.292;2023-04-02T09:55:26;93611.00;;;15.51;41.54
9676;BME280;4876;42.656;23.292;2023-04-02T09:58:11;93602.28;;;15.51;41.50
9676;BME280;4876;42.656;23.292;2023-04-02T10:00:39;93593.78;;;15.65;42.17
9676;BME280;4876;42.656;23.292;2023-04-02T10:03:18;93601.19;;;15.82;41.86
9676;BME280;4876;42.656;23.292;2023-04-02T10:06:03;93597.84;;;15.85;41.62
9676;BME280;4876;42.656;23.292;2023-04-02T10:08:31;93590.94;;;16.48;43.91
9676;BME280;4876;42.656;23.292;2023-04-02T10:10:59;93593.16;;;16.83;41.70
9676;BME280;4876;42.656;23.292;2023-04-02T10:13:29;93579.69;;;16.61;40.95
9676;BME280;4876;42.656;23.292;2023-04-02T10:15:59;93586.28;;;16.75;40.95
9676;BME280;4876;42.656;23.292;2023-04-02T10:18:42;93581.47;;;16.50;40.88
9676;BME280;4876;42.656;23.292;2023-04-02T10:21:15;93576.09;;;16.43;41.29
9676;BME280;4876;42.656;23.292;2023-04-02T10:23:43;93580.81;;;16.60;40.29
9676;BME280;4876;42.656;23.292;2023-04-02T10:26:34;93574.56;;;16.79;40.80
9676;BME280;4876;42.656;23.292;2023-04-02T10:29:14;93570.25;;;16.67;41.81
9676;BME280;4876;42.656;23.292;2023-04-02T10:31:50;93559.06;;;16.44;40.24
9676;BME280;4876;42.656;23.292;2023-04-02T10:34:23;93590.81;;;16.37;39.93
9676;BME280;4876;42.656;23.292;2023-04-02T10:36:54;93598.41;;;16.38;40.72
9676;BME280;4876;42.656;23.292;2023-04-02T10:39:27;93593.66;;;16.18;40.32
9676;BME280;4876;42.656;23.292;2023-04-02T10:42:03;93589.31;;;16.39;40.77
9676;BME280;4876;42.656;23.292;2023-04-02T10:44:39;93591.41;;;16.20;41.31
9676;BME280;4876;42.656;23.292;2023-04-02T10:47:21;93584.19;;;16.17;40.03
9676;BME280;4876;42.656;23.292;2023-04-02T10:50:02;93580.75;;;15.82;40.17
9676;BME280;4876;42.656;23.292;2023-04-02T10:52:38;93577.50;;;15.36;41.79
9676;BME280;4876;42.656;23.292;2023-04-02T10:55:14;93566.22;;;15.43;42.86
9676;BME280;4876;42.656;23.292;2023-04-02T10:57:43;93577.50;;;15.36;44.12
9676;BME280;4876;42.656;23.292;2023-04-02T11:00:17;93570.34;;;15.40;45.94
9676;BME280;4876;42.656;23.292;2023-04-02T11:02:51;93575.88;;;15.28;45.50
9676;BME280;4876;42.656;23.292;2023-04-02T11:05:24;93570.25;;;15.33;45.21
9676;BME280;4876;42.656;23.292;2023-04-02T11:08:02;93560.47;;;15.37;45.21
9676;BME280;4876;42.656;23.292;2023-04-02T11:10:34;93567.00;;;15.17;46.06
9676;BME280;4876;42.656;23.292;2023-04-02T11:13:08;93568.75;;;15.09;45.75
9676;BME280;4876;42.656;23.292;2023-04-02T11:15:38;93566.59;;;14.65;46.66
9676;BME280;4876;42.656;23.292;2023-04-02T11:18:06;93581.19;;;14.36;47.31
9676;BME280;4876;42.656;23.292;2023-04-02T11:21:05;93577.13;;;14.19;47.43
9676;BME280;4876;42.656;23.292;2023-04-02T11:23:35;93567.94;;;14.13;47.39
9676;BME280;4876;42.656;23.292;2023-04-02T11:26:33;93570.56;;;14.33;47.42
9676;BME280;4876;42.656;23.292;2023-04-02T11:29:17;93561.97;;;14.39;47.19
9676;BME280;4876;42.656;23.292;2023-04-02T11:31:46;93561.16;;;14.35;47.37
9676;BME280;4876;42.656;23.292;2023-04-02T11:34:15;93557.31;;;14.52;46.63
9676;BME280;4876;42.656;23.292;2023-04-02T11:37:07;93561.34;;;14.69;46.20
9676;BME280;4876;42.656;23.292;2023-04-02T11:39:47;93555.88;;;14.58;45.90
9676;BME280;4876;42.656;23.292;2023-04-02T11:42:24;93554.16;;;14.66;45.87
9676;BME280;4876;42.656;23.292;2023-04-02T11:44:51;93549.06;;;14.57;44.99
9676;BME280;4876;42.656;23.292;2023-04-02T11:47:19;93552.41;;;14.77;45.15
9676;BME280;4876;42.656;23.292;2023-04-02T11:50:02;93553.88;;;14.74;46.14
9676;BME280;4876;42.656;23.292;2023-04-02T11:52:32;93555.28;;;14.45;46.37
9676;BME280;4876;42.656;23.292;2023-04-02T11:58:24;93536.69;;;14.88;45.79
9676;BME280;4876;42.656;23.292;2023-04-02T12:01:23;93551.31;;;15.04;45.20
9676;BME280;4876;42.656;23.292;2023-04-02T12:04:07;93551.41;;;15.12;44.50
9676;BME280;4876;42.656;23.292;2023-04-02T12:06:52;93560.78;;;15.32;44.61
9676;BME280;4876;42.656;23.292;2023-04-02T12:09:25;93555.09;;;15.33;44.28
9676;BME280;4876;42.656;23.292;2023-04-02T12:11:58;93563.59;;;15.16;45.25
9676;BME280;4876;42.656;23.292;2023-04-02T12:14:42;93556.72;;;15.12;44.69
9676;BME280;4876;42.656;23.292;2023-04-02T12:17:23;93546.41;;;15.06;44.71
9676;BME280;4876;42.656;23.292;2023-04-02T12:19:53;93551.41;;;14.85;45.65
9676;BME280;4876;42.656;23.292;2023-04-02T12:22:23;93551.16;;;14.94;45.54
9676;BME280;4876;42.656;23.292;2023-04-02T12:24:52;93554.00;;;14.81;45.17
9676;BME280;4876;42.656;23.292;2023-04-02T12:27:24;93551.22;;;14.97;44.88
9676;BME280;4876;42.656;23.292;2023-04-02T12:29:55;93544.50;;;15.03;45.03
9676;BME280;4876;42.656;23.292;2023-04-02T12:32:26;93555.59;;;15.13;45.03
9676;BME280;4876;42.656;23.292;2023-04-02T12:34:55;93542.75;;;15.15;44.26
9676;BME280;4876;42.656;23.292;2023-04-02T12:37:26;93545.34;;;15.38;44.20
9676;BME280;4876;42.656;23.292;2023-04-02T12:39:59;93538.91;;;15.39;43.30
9676;BME280;4876;42.656;23.292;2023-04-02T12:42:33;93534.78;;;15.41;43.32
9676;BME280;4876;42.656;23.292;2023-04-02T12:45:02;93544.50;;;15.60;43.64
9676;BME280;4876;42.656;23.292;2023-04-02T12:47:29;93537.56;;;15.52;42.83
9676;BME280;4876;42.656;23.292;2023-04-02T12:49:58;93532.84;;;15.38;42.92
9676;BME280;4876;42.656;23.292;2023-04-02T12:52:27;93530.72;;;15.47;42.89
9676;BME280;4876;42.656;23.292;2023-04-02T12:54:59;93528.94;;;15.58;42.63
9676;BME280;4876;42.656;23.292;2023-04-02T12:57:39;93528.84;;;15.78;42.00
9676;BME280;4876;42.656;23.292;2023-04-02T13:00:27;93528.94;;;15.88;42.19
9676;BME280;4876;42.656;23.292;2023-04-02T13:02:59;93525.56;;;16.29;41.62
9676;BME280;4876;42.656;23.292;2023-04-02T13:05:35;93530.81;;;16.25;40.99
9676;BME280;4876;42.656;23.292;2023-04-02T13:08:15;93513.66;;;16.53;40.45
9676;BME280;4876;42.656;23.292;2023-04-02T13:10:51;93525.03;;;16.53;40.99
9676;BME280;4876;42.656;23.292;2023-04-02T13:13:24;93520.59;;;15.86;41.53
9676;BME280;4876;42.656;23.292;2023-04-02T13:16:06;93523.94;;;15.83;41.32
9676;BME280;4876;42.656;23.292;2023-04-02T13:18:35;93523.53;;;15.78;41.02
9676;BME280;4876;42.656;23.292;2023-04-02T13:21:03;93514.69;;;15.67;42.20
9676;BME280;4876;42.656;23.292;2023-04-02T13:23:34;93514.91;;;15.54;42.34
9676;BME280;4876;42.656;23.292;2023-04-02T13:26:10;93520.72;;;15.37;41.33
9676;BME280;4876;42.656;23.292;2023-04-02T13:28:41;93526.56;;;15.20;41.94
9676;BME280;4876;42.656;23.292;2023-04-02T13:31:13;93516.00;;;15.23;41.78
9676;BME280;4876;42.656;23.292;2023-04-02T13:33:42;93522.78;;;15.21;42.14
9676;BME280;4876;42.656;23.292;2023-04-02T13:36:12;93517.19;;;14.99;42.11
9676;BME280;4876;42.656;23.292;2023-04-02T13:38:38;93518.94;;;14.65;42.07
9676;BME280;4876;42.656;23.292;2023-04-02T13:41:17;93517.50;;;14.68;42.29
9676;BME280;4876;42.656;23.292;2023-04-02T13:43:47;93513.72;;;14.69;42.14
9676;BME280;4876;42.656;23.292;2023-04-02T13:46:19;93519.47;;;14.74;42.28
9676;BME280;4876;42.656;23.292;2023-04-02T13:48:47;93522.97;;;14.78;42.06
9676;BME280;4876;42.656;23.292;2023-04-02T13:51:15;93522.31;;;14.85;41.30
9676;BME280;4876;42.656;23.292;2023-04-02T13:53:42;93517.81;;;14.89;41.56